sensor_id;sensor_type;location;lat;lon;timestamp;pressure;altitude;pressure_sealevel;temperature;humidity
20955;BME280;10636;19.390;-99.256;2022-10-16T00:02:02;77860.00;;;25.74;34.28
20955;BME280;10636;19.390;-99.256;2022-10-16T00:04:32;77860.69;;;25.75;34.19
20955;BME280;10636;19.390;-99.256;2022-10-16T00:07:00;77868.06;;;25.74;34.37
20955;BME280;10636;19.390;-99.256;2022-10-16T00:09:29;77860.00;;;25.74;34.25
20955;BME280;10636;19.390;-99.256;2022-10-16T00:11:57;77865.38;;;25.74;34.34
20955;BME280;10636;19.390;-99.256;2022-10-16T00:14:25;77864.66;;;25.74;33.95
20955;BME280;10636;19.390;-99.256;2022-10-16T00:16:54;77876.69;;;25.73;33.90
20955;BME280;10636;19.390;-99.256;2022-10-16T00:19:22;77874.72;;;25.73;34.44
20955;BME280;10636;19.390;-99.256;2022-10-16T00:21:52;77877.31;;;25.71;33.46
20955;BME280;10636;19.390;-99.256;2022-10-16T00:24:21;77882.63;;;25.69;33.99
20955;BME280;10636;19.390;-99.256;2022-10-16T00:26:50;77881.31;;;25.70;33.89
20955;BME280;10636;19.390;-99.256;2022-10-16T00:29:18;77888.06;;;25.71;33.97
20955;BME280;10636;19.390;-99.256;2022-10-16T00:31:47;77888.69;;;25.70;33.75
20955;BME280;10636;19.390;-99.256;2022-10-16T00:34:15;77888.00;;;25.69;34.01
20955;BME280;10636;19.390;-99.256;2022-10-16T00:36:43;77890.69;;;25.69;33.95
20955;BME280;10636;19.390;-99.256;2022-10-16T00:39:13;77894.06;;;25.70;34.07
20955;BME280;10636;19.390;-99.256;2022-10-16T00:41:42;77897.44;;;25.70;33.94
20955;BME280;10636;19.390;-99.256;2022-10-16T00:44:44;77901.44;;;25.69;34.16
20955;BME280;10636;19.390;-99.256;2022-10-16T00:47:20;77898.66;;;25.67;34.42
20955;BME280;10636;19.390;-99.256;2022-10-16T00:49:53;77908.03;;;25.66;34.42
20955;BME280;10636;19.390;-99.256;2022-10-16T00:52:24;77908.72;;;25.67;34.45
20955;BME280;10636;19.390;-99.256;2022-10-16T00:54:54;77920.16;;;25.67;33.88
20955;BME280;10636;19.390;-99.256;2022-10-16T00:57:24;77920.16;;;25.67;34.01
20955;BME280;10636;19.390;-99.256;2022-10-16T00:59:53;77922.78;;;25.65;33.67
20955;BME280;10636;19.390;-99.256;2022-10-16T01:02:22;77933.53;;;25.65;34.26
20955;BME280;10636;19.390;-99.256;2022-10-16T01:04:52;77937.53;;;25.64;34.12
20955;BME280;10636;19.390;-99.256;2022-10-16T01:07:30;77940.84;;;25.63;34.05
20955;BME280;10636;19.390;-99.256;2022-10-16T01:10:16;77952.25;;;25.63;33.79
20955;BME280;10636;19.390;-99.256;2022-10-16T01:12:47;77950.94;;;25.64;34.32
20955;BME280;10636;19.390;-99.256;2022-10-16T01:15:22;77965.69;;;25.63;33.81
20955;BME280;10636;19.390;-99.256;2022-10-16T01:17:57;77960.91;;;25.62;34.19
20955;BME280;10636;19.390;-99.256;2022-10-16T01:20:29;77961.59;;;25.62;33.84
20955;BME280;10636;19.390;-99.256;2022-10-16T01:23:11;77960.22;;;25.61;34.65
20955;BME280;10636;19.390;-99.256;2022-10-16T01:26:08;77973.59;;;25.59;34.20
20955;BME280;10636;19.390;-99.256;2022-10-16T01:28:45;77982.28;;;25.58;34.60
20955;BME280;10636;19.390;-99.256;2022-10-16T01:31:19;77972.75;;;25.54;34.46
20955;BME280;10636;19.390;-99.256;2022-10-16T01:33:57;77984.13;;;25.53;34.80
20955;BME280;10636;19.390;-99.256;2022-10-16T01:36:33;77999.63;;;25.54;35.47
20955;BME280;10636;19.390;-99.256;2022-10-16T01:39:05;77998.94;;;25.54;35.37
20955;BME280;10636;19.390;-99.256;2022-10-16T01:41:39;78002.94;;;25.53;35.15
20955;BME280;10636;19.390;-99.256;2022-10-16T01:44:13;78013.66;;;25.53;35.62
20955;BME280;10636;19.390;-99.256;2022-10-16T01:46:43;78026.31;;;25.50;35.91
20955;BME280;10636;19.390;-99.256;2022-10-16T01:49:14;78020.19;;;25.48;36.38
20955;BME280;10636;19.390;-99.256;2022-10-16T01:51:45;78024.78;;;25.45;36.42
20955;BME280;10636;19.390;-99.256;2022-10-16T01:54:16;78029.47;;;25.45;36.53
20955;BME280;10636;19.390;-99.256;2022-10-16T01:56:49;78030.16;;;25.45;36.84
20955;BME280;10636;19.390;-99.256;2022-10-16T01:59:21;78019.25;;;25.41;37.18
20955;BME280;10636;19.390;-99.256;2022-10-16T02:01:54;78041.44;;;25.42;37.46
20955;BME280;10636;19.390;-99.256;2022-10-16T02:04:26;78038.66;;;25.40;37.39
20955;BME280;10636;19.390;-99.256;2022-10-16T02:06:56;78041.28;;;25.38;37.84
20955;BME280;10636;19.390;-99.256;2022-10-16T02:09:24;78045.28;;;25.37;38.08
20955;BME280;10636;19.390;-99.256;2022-10-16T02:11:54;78049.19;;;25.34;37.91
20955;BME280;10636;19.390;-99.256;2022-10-16T02:14:27;78049.19;;;25.34;37.74
20955;BME280;10636;19.390;-99.256;2022-10-16T02:16:55;78052.41;;;25.30;38.09
20955;BME280;10636;19.390;-99.256;2022-10-16T02:19:24;78054.50;;;25.32;37.97
20955;BME280;10636;19.390;-99.256;2022-10-16T02:21:54;78062.44;;;25.29;38.80
20955;BME280;10636;19.390;-99.256;2022-10-16T02:24:28;78061.06;;;25.28;38.65
20955;BME280;10636;19.390;-99.256;2022-10-16T02:27:03;78059.69;;;25.27;38.44
20955;BME280;10636;19.390;-99.256;2022-10-16T02:29:38;78058.91;;;25.25;38.91
20955;BME280;10636;19.390;-99.256;2022-10-16T02:32:11;78059.38;;;25.19;39.00
20955;BME280;10636;19.390;-99.256;2022-10-16T02:34:41;78060.75;;;25.20;38.78
20955;BME280;10636;19.390;-99.256;2022-10-16T02:37:10;78076.16;;;25.20;39.05
20955;BME280;10636;19.390;-99.256;2022-10-16T02:39:40;78075.41;;;25.17;39.42
20955;BME280;10636;19.390;-99.256;2022-10-16T02:42:10;78088.84;;;25.17;39.44
20955;BME280;10636;19.390;-99.256;2022-10-16T02:44:41;78088.75;;;25.15;39.41
20955;BME280;10636;19.390;-99.256;2022-10-16T02:47:09;78085.91;;;25.11;39.58
20955;BME280;10636;19.390;-99.256;2022-10-16T02:49:38;78094.56;;;25.10;39.54
20955;BME280;10636;19.390;-99.256;2022-10-16T02:52:07;78091.81;;;25.08;39.70
20955;BME280;10636;19.390;-99.256;2022-10-16T02:54:35;78101.16;;;25.07;39.85
20955;BME280;10636;19.390;-99.256;2022-10-16T02:57:04;78100.47;;;25.06;40.45
20955;BME280;10636;19.390;-99.256;2022-10-16T02:59:32;78101.84;;;25.07;40.22
20955;BME280;10636;19.390;-99.256;2022-10-16T03:02:02;78101.84;;;25.07;40.66
20955;BME280;10636;19.390;-99.256;2022-10-16T03:04:31;78106.41;;;25.04;40.74
20955;BME280;10636;19.390;-99.256;2022-10-16T03:06:59;78098.91;;;25.01;40.81
20955;BME280;10636;19.390;-99.256;2022-10-16T03:09:27;78105.13;;;25.06;40.62
20955;BME280;10636;19.390;-99.256;2022-10-16T03:11:56;78108.41;;;25.04;40.64
20955;BME280;10636;19.390;-99.256;2022-10-16T03:14:24;78110.31;;;25.01;40.97
20955;BME280;10636;19.390;-99.256;2022-10-16T03:16:53;78110.25;;;24.99;40.97
20955;BME280;10636;19.390;-99.256;2022-10-16T03:19:23;78116.22;;;24.98;41.42
20955;BME280;10636;19.390;-99.256;2022-10-16T03:21:51;78120.19;;;24.97;41.07
20955;BME280;10636;19.390;-99.256;2022-10-16T03:24:19;78122.81;;;24.95;41.65
20955;BME280;10636;19.390;-99.256;2022-10-16T03:26:48;78124.03;;;24.92;41.63
20955;BME280;10636;19.390;-99.256;2022-10-16T03:29:16;78113.13;;;24.88;41.62
20955;BME280;10636;19.390;-99.256;2022-10-16T03:31:44;78126.63;;;24.90;41.88
20955;BME280;10636;19.390;-99.256;2022-10-16T03:34:14;78123.16;;;24.87;41.95
20955;BME280;10636;19.390;-99.256;2022-10-16T03:36:44;78123.78;;;24.86;41.74
20955;BME280;10636;19.390;-99.256;2022-10-16T03:39:13;78122.31;;;24.83;41.90
20955;BME280;10636;19.390;-99.256;2022-10-16T03:41:41;78123.72;;;24.84;42.55
20955;BME280;10636;19.390;-99.256;2022-10-16T03:44:09;78132.97;;;24.81;41.79
20955;BME280;10636;19.390;-99.256;2022-10-16T03:46:38;78126.28;;;24.82;42.17
20955;BME280;10636;19.390;-99.256;2022-10-16T03:49:06;78127.44;;;24.76;42.03
20955;BME280;10636;19.390;-99.256;2022-10-16T03:51:35;78128.81;;;24.77;41.87
20955;BME280;10636;19.390;-99.256;2022-10-16T03:54:05;78118.88;;;24.80;41.90
20955;BME280;10636;19.390;-99.256;2022-10-16T03:56:33;78137.03;;;24.82;41.89
20955;BME280;10636;19.390;-99.256;2022-10-16T03:59:02;78127.53;;;24.78;41.57
20955;BME280;10636;19.390;-99.256;2022-10-16T04:01:30;78131.50;;;24.77;41.86
20955;BME280;10636;19.390;-99.256;2022-10-16T04:03:58;78131.41;;;24.75;41.96
20955;BME280;10636;19.390;-99.256;2022-10-16T04:06:27;78124.56;;;24.72;41.79
20955;BME280;10636;19.390;-99.256;2022-10-16T04:08:55;78131.25;;;24.71;42.35
20955;BME280;10636;19.390;-99.256;2022-10-16T04:11:25;78122.44;;;24.69;42.26
20955;BME280;10636;19.390;-99.256;2022-10-16T04:13:54;78136.44;;;24.67;42.39
20955;BME280;10636;19.390;-99.256;2022-10-16T04:16:22;78138.44;;;24.67;41.93
20955;BME280;10636;19.390;-99.256;2022-10-16T04:18:51;78134.97;;;24.64;42.40
20955;BME280;10636;19.390;-99.256;2022-10-16T04:21:19;78142.94;;;24.62;42.49
20955;BME280;10636;19.390;-99.256;2022-10-16T04:23:48;78144.84;;;24.60;42.75
20955;BME280;10636;19.390;-99.256;2022-10-16T04:26:17;78149.41;;;24.57;41.98
20955;BME280;10636;19.390;-99.256;2022-10-16T04:28:47;78145.28;;;24.54;42.26
20955;BME280;10636;19.390;-99.256;2022-10-16T04:31:16;78143.97;;;24.55;42.20
20955;BME280;10636;19.390;-99.256;2022-10-16T04:33:44;78143.97;;;24.55;42.63
20955;BME280;10636;19.390;-99.256;2022-10-16T04:36:13;78147.78;;;24.50;42.57
20955;BME280;10636;19.390;-99.256;2022-10-16T04:38:47;78142.25;;;24.46;42.75
20955;BME280;10636;19.390;-99.256;2022-10-16T04:41:15;78138.81;;;24.43;42.60
20955;BME280;10636;19.390;-99.256;2022-10-16T04:43:50;78152.13;;;24.41;43.42
20955;BME280;10636;19.390;-99.256;2022-10-16T04:46:18;78144.69;;;24.40;43.44
20955;BME280;10636;19.390;-99.256;2022-10-16T04:48:47;78143.22;;;24.37;42.86
20955;BME280;10636;19.390;-99.256;2022-10-16T04:51:16;78145.91;;;24.37;43.45
20955;BME280;10636;19.390;-99.256;2022-10-16T04:54:05;78146.59;;;24.37;43.32
20955;BME280;10636;19.390;-99.256;2022-10-16T04:56:33;78154.22;;;24.43;43.01
20955;BME280;10636;19.390;-99.256;2022-10-16T04:59:15;78152.97;;;24.46;43.51
20955;BME280;10636;19.390;-99.256;2022-10-16T05:02:09;78143.66;;;24.47;42.98
20955;BME280;10636;19.390;-99.256;2022-10-16T05:04:37;78151.78;;;24.49;43.24
20955;BME280;10636;19.390;-99.256;2022-10-16T05:07:05;78143.66;;;24.47;42.87
20955;BME280;10636;19.390;-99.256;2022-10-16T05:09:34;78153.06;;;24.48;43.26
20955;BME280;10636;19.390;-99.256;2022-10-16T05:12:02;78151.78;;;24.49;43.17
20955;BME280;10636;19.390;-99.256;2022-10-16T05:14:33;78149.84;;;24.51;43.52
20955;BME280;10636;19.390;-99.256;2022-10-16T05:17:25;78150.72;;;24.56;43.22
20955;BME280;10636;19.390;-99.256;2022-10-16T05:19:53;78143.38;;;24.57;43.35
20955;BME280;10636;19.390;-99.256;2022-10-16T05:22:22;78147.44;;;24.58;43.02
20955;BME280;10636;19.390;-99.256;2022-10-16T05:24:50;78150.13;;;24.58;43.11
20955;BME280;10636;19.390;-99.256;2022-10-16T05:27:19;78147.44;;;24.58;43.56
20955;BME280;10636;19.390;-99.256;2022-10-16T05:29:49;78148.16;;;24.58;43.06
20955;BME280;10636;19.390;-99.256;2022-10-16T05:32:18;78146.75;;;24.57;43.28
20955;BME280;10636;19.390;-99.256;2022-10-16T05:34:46;78141.38;;;24.57;43.50
20955;BME280;10636;19.390;-99.256;2022-10-16T05:37:15;78143.47;;;24.59;43.34
20955;BME280;10636;19.390;-99.256;2022-10-16T05:39:43;78147.53;;;24.60;43.56
20955;BME280;10636;19.390;-99.256;2022-10-16T05:42:11;78143.47;;;24.59;42.92
20955;BME280;10636;19.390;-99.256;2022-10-16T05:44:40;78142.69;;;24.56;43.21
20955;BME280;10636;19.390;-99.256;2022-10-16T05:47:12;78145.53;;;24.60;43.26
20955;BME280;10636;19.390;-99.256;2022-10-16T05:49:41;78148.28;;;24.62;43.03
20955;BME280;10636;19.390;-99.256;2022-10-16T05:52:10;78144.47;;;24.67;43.21
20955;BME280;10636;19.390;-99.256;2022-10-16T05:54:38;78143.91;;;24.69;43.20
20955;BME280;10636;19.390;-99.256;2022-10-16T05:57:07;78149.94;;;24.69;42.69
20955;BME280;10636;19.390;-99.256;2022-10-16T05:59:35;78151.16;;;24.66;42.62
20955;BME280;10636;19.390;-99.256;2022-10-16T06:02:04;78149.00;;;24.63;43.48
20955;BME280;10636;19.390;-99.256;2022-10-16T06:04:34;78141.72;;;24.65;43.38
20955;BME280;10636;19.390;-99.256;2022-10-16T06:07:02;78146.41;;;24.65;43.21
20955;BME280;10636;19.390;-99.256;2022-10-16T06:09:31;78138.34;;;24.65;42.97
20955;BME280;10636;19.390;-99.256;2022-10-16T06:11:59;78138.97;;;24.63;43.05
20955;BME280;10636;19.390;-99.256;2022-10-16T06:14:28;78132.91;;;24.63;43.32
20955;BME280;10636;19.390;-99.256;2022-10-16T06:16:56;78138.97;;;24.63;43.42
20955;BME280;10636;19.390;-99.256;2022-10-16T06:19:24;78133.59;;;24.63;43.17
20955;BME280;10636;19.390;-99.256;2022-10-16T06:21:54;78138.97;;;24.63;43.28
20955;BME280;10636;19.390;-99.256;2022-10-16T06:24:24;78142.34;;;24.64;42.95
20955;BME280;10636;19.390;-99.256;2022-10-16T06:26:52;78138.97;;;24.63;42.75
20955;BME280;10636;19.390;-99.256;2022-10-16T06:29:21;78144.34;;;24.63;43.22
20955;BME280;10636;19.390;-99.256;2022-10-16T06:31:49;78132.91;;;24.63;42.69
20955;BME280;10636;19.390;-99.256;2022-10-16T06:34:19;78150.97;;;24.62;42.95
20955;BME280;10636;19.390;-99.256;2022-10-16T06:36:47;78142.25;;;24.62;42.71
20955;BME280;10636;19.390;-99.256;2022-10-16T06:39:17;78136.88;;;24.62;43.07
20955;BME280;10636;19.390;-99.256;2022-10-16T06:41:46;78134.81;;;24.60;42.93
20955;BME280;10636;19.390;-99.256;2022-10-16T06:44:15;78132.13;;;24.60;43.43
20955;BME280;10636;19.390;-99.256;2022-10-16T06:46:43;78129.44;;;24.60;43.13
20955;BME280;10636;19.390;-99.256;2022-10-16T06:49:12;78131.50;;;24.62;43.43
20955;BME280;10636;19.390;-99.256;2022-10-16T06:51:47;78129.44;;;24.60;43.20
20955;BME280;10636;19.390;-99.256;2022-10-16T06:54:17;78118.03;;;24.60;42.66
20955;BME280;10636;19.390;-99.256;2022-10-16T06:56:45;78118.03;;;24.60;42.94
20955;BME280;10636;19.390;-99.256;2022-10-16T06:59:14;78127.44;;;24.61;43.50
20955;BME280;10636;19.390;-99.256;2022-10-16T07:01:42;78112.66;;;24.60;43.29
20955;BME280;10636;19.390;-99.256;2022-10-16T07:04:11;78111.97;;;24.59;43.17
20955;BME280;10636;19.390;-99.256;2022-10-16T07:06:39;78120.03;;;24.59;43.18
20955;BME280;10636;19.390;-99.256;2022-10-16T07:09:09;78116.66;;;24.59;43.45
20955;BME280;10636;19.390;-99.256;2022-10-16T07:11:40;78116.03;;;24.60;42.82
20955;BME280;10636;19.390;-99.256;2022-10-16T07:14:15;78115.97;;;24.58;43.63
20955;BME280;10636;19.390;-99.256;2022-10-16T07:16:44;78117.97;;;24.58;42.96
20955;BME280;10636;19.390;-99.256;2022-10-16T07:19:13;78109.19;;;24.57;42.71
20955;BME280;10636;19.390;-99.256;2022-10-16T07:21:44;78111.81;;;24.55;43.45
20955;BME280;10636;19.390;-99.256;2022-10-16T07:24:13;78101.09;;;24.55;43.25
20955;BME280;10636;19.390;-99.256;2022-10-16T07:26:45;78111.81;;;24.55;43.54
20955;BME280;10636;19.390;-99.256;2022-10-16T07:29:15;78103.75;;;24.55;42.64
20955;BME280;10636;19.390;-99.256;2022-10-16T07:31:44;78099.72;;;24.54;43.01
20955;BME280;10636;19.390;-99.256;2022-10-16T07:34:13;78092.28;;;24.52;42.85
20955;BME280;10636;19.390;-99.256;2022-10-16T07:36:41;78090.28;;;24.53;42.72
20955;BME280;10636;19.390;-99.256;2022-10-16T07:39:10;78082.94;;;24.54;43.00
20955;BME280;10636;19.390;-99.256;2022-10-16T07:41:38;78081.56;;;24.52;43.12
20955;BME280;10636;19.390;-99.256;2022-10-16T07:44:08;78074.78;;;24.51;42.93
20955;BME280;10636;19.390;-99.256;2022-10-16T07:46:37;78082.16;;;24.51;42.99
20955;BME280;10636;19.390;-99.256;2022-10-16T07:49:05;78075.41;;;24.50;43.01
20955;BME280;10636;19.390;-99.256;2022-10-16T07:51:33;78071.34;;;24.49;43.47
20955;BME280;10636;19.390;-99.256;2022-10-16T07:54:02;78070.66;;;24.48;43.42
20955;BME280;10636;19.390;-99.256;2022-10-16T07:56:31;78072.56;;;24.46;43.02
20955;BME280;10636;19.390;-99.256;2022-10-16T07:59:00;78068.59;;;24.47;42.96
20955;BME280;10636;19.390;-99.256;2022-10-16T08:01:30;78065.19;;;24.46;43.53
20955;BME280;10636;19.390;-99.256;2022-10-16T08:03:58;78061.13;;;24.45;43.37
20955;BME280;10636;19.390;-99.256;2022-10-16T08:06:26;78065.19;;;24.46;43.00
20955;BME280;10636;19.390;-99.256;2022-10-16T08:08:56;78060.44;;;24.45;43.27
20955;BME280;10636;19.390;-99.256;2022-10-16T08:11:26;78068.50;;;24.45;42.90
20955;BME280;10636;19.390;-99.256;2022-10-16T08:13:54;78063.75;;;24.43;43.25
20955;BME280;10636;19.390;-99.256;2022-10-16T08:16:22;78064.38;;;24.42;42.89
20955;BME280;10636;19.390;-99.256;2022-10-16T08:18:52;78053.66;;;24.42;43.12
20955;BME280;10636;19.390;-99.256;2022-10-16T08:21:22;78049.56;;;24.41;43.13
20955;BME280;10636;19.390;-99.256;2022-10-16T08:23:52;78050.97;;;24.42;43.46
20955;BME280;10636;19.390;-99.256;2022-10-16T08:26:21;78049.56;;;24.41;43.68
20955;BME280;10636;19.390;-99.256;2022-10-16T08:28:50;78049.47;;;24.39;43.46
20955;BME280;10636;19.390;-99.256;2022-10-16T08:31:19;78043.50;;;24.40;43.20
20955;BME280;10636;19.390;-99.256;2022-10-16T08:33:47;78044.19;;;24.41;42.91
20955;BME280;10636;19.390;-99.256;2022-10-16T08:36:17;78041.44;;;24.39;43.33
20955;BME280;10636;19.390;-99.256;2022-10-16T08:38:48;78048.19;;;24.40;42.96
20955;BME280;10636;19.390;-99.256;2022-10-16T08:44:18;78033.34;;;24.37;43.43
20955;BME280;10636;19.390;-99.256;2022-10-16T08:46:55;78034.03;;;24.37;42.95
20955;BME280;10636;19.390;-99.256;2022-10-16T08:49:29;78032.03;;;24.38;43.15
20955;BME280;10636;19.390;-99.256;2022-10-16T08:51:59;78032.63;;;24.36;43.52
20955;BME280;10636;19.390;-99.256;2022-10-16T08:54:31;78031.94;;;24.36;43.01
20955;BME280;10636;19.390;-99.256;2022-10-16T08:57:09;78031.94;;;24.36;43.79
20955;BME280;10636;19.390;-99.256;2022-10-16T08:59:37;78034.59;;;24.36;43.66
20955;BME280;10636;19.390;-99.256;2022-10-16T09:02:24;78035.88;;;24.35;43.32
20955;BME280;10636;19.390;-99.256;2022-10-16T09:05:09;78035.19;;;24.34;43.47
20955;BME280;10636;19.390;-99.256;2022-10-16T09:07:48;78033.13;;;24.33;43.73
20955;BME280;10636;19.390;-99.256;2022-10-16T09:10:29;78028.47;;;24.33;43.25
20955;BME280;10636;19.390;-99.256;2022-10-16T09:13:10;78034.34;;;24.30;43.77
20955;BME280;10636;19.390;-99.256;2022-10-16T09:15:49;78025.00;;;24.31;43.72
20955;BME280;10636;19.390;-99.256;2022-10-16T09:18:28;78029.06;;;24.32;43.78
20955;BME280;10636;19.390;-99.256;2022-10-16T09:21:04;78030.34;;;24.31;43.59
20955;BME280;10636;19.390;-99.256;2022-10-16T09:23:37;78032.34;;;24.30;43.57
20955;BME280;10636;19.390;-99.256;2022-10-16T09:26:11;78023.72;;;24.32;43.74
20955;BME280;10636;19.390;-99.256;2022-10-16T09:28:40;78034.44;;;24.32;43.58
20955;BME280;10636;19.390;-99.256;2022-10-16T09:31:15;78030.91;;;24.27;43.34
20955;BME280;10636;19.390;-99.256;2022-10-16T09:33:48;78028.72;;;24.23;43.23
20955;BME280;10636;19.390;-99.256;2022-10-16T09:36:19;78030.72;;;24.23;43.33
20955;BME280;10636;19.390;-99.256;2022-10-16T09:38:50;78027.34;;;24.22;43.99
20955;BME280;10636;19.390;-99.256;2022-10-16T09:41:21;78024.69;;;24.22;43.31
20955;BME280;10636;19.390;-99.256;2022-10-16T09:43:54;78028.72;;;24.23;43.57
20955;BME280;10636;19.390;-99.256;2022-10-16T09:46:28;78026.56;;;24.20;43.79
20955;BME280;10636;19.390;-99.256;2022-10-16T09:48:59;78031.94;;;24.20;43.84
20955;BME280;10636;19.390;-99.256;2022-10-16T09:51:29;78027.19;;;24.18;43.54
20955;BME280;10636;19.390;-99.256;2022-10-16T09:54:01;78021.75;;;24.16;43.36
20955;BME280;10636;19.390;-99.256;2022-10-16T09:56:31;78024.44;;;24.16;43.46
20955;BME280;10636;19.390;-99.256;2022-10-16T09:59:01;78023.13;;;24.17;43.29
20955;BME280;10636;19.390;-99.256;2022-10-16T10:01:35;78027.81;;;24.17;43.26
20955;BME280;10636;19.390;-99.256;2022-10-16T10:04:05;78023.13;;;24.17;43.92
20955;BME280;10636;19.390;-99.256;2022-10-16T10:06:35;78021.75;;;24.16;43.94
20955;BME280;10636;19.390;-99.256;2022-10-16T10:09:16;78015.72;;;24.16;43.93
20955;BME280;10636;19.390;-99.256;2022-10-16T10:11:49;78024.94;;;24.13;43.67
20955;BME280;10636;19.390;-99.256;2022-10-16T10:14:36;78029.00;;;24.14;43.54
20955;BME280;10636;19.390;-99.256;2022-10-16T10:17:12;78022.28;;;24.13;43.69
20955;BME280;10636;19.390;-99.256;2022-10-16T10:19:44;78029.69;;;24.14;43.27
20955;BME280;10636;19.390;-99.256;2022-10-16T10:22:26;78017.59;;;24.13;43.33
20955;BME280;10636;19.390;-99.256;2022-10-16T10:25:01;78025.56;;;24.11;43.89
20955;BME280;10636;19.390;-99.256;2022-10-16T10:27:46;78024.88;;;24.11;43.14
20955;BME280;10636;19.390;-99.256;2022-10-16T10:30:22;78022.78;;;24.09;43.23
20955;BME280;10636;19.390;-99.256;2022-10-16T10:33:08;78022.09;;;24.09;43.79
20955;BME280;10636;19.390;-99.256;2022-10-16T10:35:44;78024.69;;;24.07;43.17
20955;BME280;10636;19.390;-99.256;2022-10-16T10:38:29;78034.72;;;24.06;43.17
20955;BME280;10636;19.390;-99.256;2022-10-16T10:41:11;78041.41;;;24.05;43.84
20955;BME280;10636;19.390;-99.256;2022-10-16T10:43:54;78028.94;;;23.96;43.83
20955;BME280;10636;19.390;-99.256;2022-10-16T10:46:34;78031.94;;;24.04;43.15
20955;BME280;10636;19.390;-99.256;2022-10-16T10:49:16;78035.94;;;24.03;43.67
20955;BME280;10636;19.390;-99.256;2022-10-16T10:51:55;78041.28;;;24.03;43.57
20955;BME280;10636;19.390;-99.256;2022-10-16T10:54:31;78045.28;;;24.02;43.65
20955;BME280;10636;19.390;-99.256;2022-10-16T10:57:09;78042.59;;;24.02;43.63
20955;BME280;10636;19.390;-99.256;2022-10-16T10:59:50;78039.91;;;24.02;43.06
20955;BME280;10636;19.390;-99.256;2022-10-16T11:02:29;78041.28;;;24.03;42.99
20955;BME280;10636;19.390;-99.256;2022-10-16T11:05:35;78042.59;;;24.02;43.79
20955;BME280;10636;19.390;-99.256;2022-10-16T11:08:10;78047.88;;;24.00;43.19
20955;BME280;10636;19.390;-99.256;2022-10-16T11:10:47;78051.84;;;23.99;43.68
20955;BME280;10636;19.390;-99.256;2022-10-16T11:13:30;78050.47;;;23.98;43.68
20955;BME280;10636;19.390;-99.256;2022-10-16T11:16:02;78050.47;;;23.98;43.14
20955;BME280;10636;19.390;-99.256;2022-10-16T11:18:37;78057.72;;;23.95;43.67
20955;BME280;10636;19.390;-99.256;2022-10-16T11:21:10;78055.06;;;23.95;43.55
20955;BME280;10636;19.390;-99.256;2022-10-16T11:23:44;78057.72;;;23.95;43.64
20955;BME280;10636;19.390;-99.256;2022-10-16T11:26:19;78056.94;;;23.93;43.71
20955;BME280;10636;19.390;-99.256;2022-10-16T11:28:51;78051.59;;;23.93;43.70
20955;BME280;10636;19.390;-99.256;2022-10-16T11:31:27;78048.91;;;23.93;43.01
20955;BME280;10636;19.390;-99.256;2022-10-16T11:34:02;78055.47;;;23.90;42.91
20955;BME280;10636;19.390;-99.256;2022-10-16T11:36:38;78058.25;;;23.92;43.36
20955;BME280;10636;19.390;-99.256;2022-10-16T11:39:16;78055.47;;;23.90;43.33
20955;BME280;10636;19.390;-99.256;2022-10-16T11:41:50;78064.81;;;23.89;43.77
20955;BME280;10636;19.390;-99.256;2022-10-16T11:44:36;78062.16;;;23.89;43.47
20955;BME280;10636;19.390;-99.256;2022-10-16T11:47:13;78054.09;;;23.89;42.92
20955;BME280;10636;19.390;-99.256;2022-10-16T11:49:46;78062.22;;;23.91;42.97
20955;BME280;10636;19.390;-99.256;2022-10-16T11:52:20;78065.50;;;23.89;43.05
20955;BME280;10636;19.390;-99.256;2022-10-16T11:54:58;78070.88;;;23.89;43.42
20955;BME280;10636;19.390;-99.256;2022-10-16T11:57:29;78068.78;;;23.88;43.15
20955;BME280;10636;19.390;-99.256;2022-10-16T12:00:05;78072.16;;;23.88;43.35
20955;BME280;10636;19.390;-99.256;2022-10-16T12:02:49;78076.72;;;23.86;43.60
20955;BME280;10636;19.390;-99.256;2022-10-16T12:05:24;78066.03;;;23.86;43.06
20955;BME280;10636;19.390;-99.256;2022-10-16T12:08:05;78063.28;;;23.84;43.86
20955;BME280;10636;19.390;-99.256;2022-10-16T12:10:35;78059.28;;;23.85;43.22
20955;BME280;10636;19.390;-99.256;2022-10-16T12:13:05;78057.19;;;23.83;43.74
20955;BME280;10636;19.390;-99.256;2022-10-16T12:15:35;78069.91;;;23.83;43.87
20955;BME280;10636;19.390;-99.256;2022-10-16T12:18:03;78071.88;;;23.82;43.44
20955;BME280;10636;19.390;-99.256;2022-10-16T12:20:33;78071.88;;;23.82;43.62
20955;BME280;10636;19.390;-99.256;2022-10-16T12:23:05;78076.56;;;23.82;43.25
20955;BME280;10636;19.390;-99.256;2022-10-16T12:25:35;78081.91;;;23.82;44.03
20955;BME280;10636;19.390;-99.256;2022-10-16T12:28:17;78085.88;;;23.81;43.86
20955;BME280;10636;19.390;-99.256;2022-10-16T12:30:55;78084.59;;;23.82;44.09
20955;BME280;10636;19.390;-99.256;2022-10-16T12:33:29;78080.53;;;23.81;43.44
20955;BME280;10636;19.390;-99.256;2022-10-16T12:36:00;78078.97;;;23.76;43.74
20955;BME280;10636;19.390;-99.256;2022-10-16T12:38:36;78089.19;;;23.79;43.60
20955;BME280;10636;19.390;-99.256;2022-10-16T12:41:07;78088.50;;;23.79;43.54
20955;BME280;10636;19.390;-99.256;2022-10-16T12:43:39;78085.03;;;23.76;44.31
20955;BME280;10636;19.390;-99.256;2022-10-16T12:46:26;78088.31;;;23.74;44.03
20955;BME280;10636;19.390;-99.256;2022-10-16T12:49:21;78091.00;;;23.74;44.16
20955;BME280;10636;19.390;-99.256;2022-10-16T12:51:50;78092.28;;;23.73;44.40
20955;BME280;10636;19.390;-99.256;2022-10-16T12:54:21;78092.28;;;23.73;43.80
20955;BME280;10636;19.390;-99.256;2022-10-16T12:57:04;78102.91;;;23.71;43.88
20955;BME280;10636;19.390;-99.256;2022-10-16T12:59:42;78101.59;;;23.72;44.04
20955;BME280;10636;19.390;-99.256;2022-10-16T13:05:26;78106.94;;;23.72;44.48
20955;BME280;10636;19.390;-99.256;2022-10-16T13:08:11;78113.72;;;23.73;44.66
20955;BME280;10636;19.390;-99.256;2022-10-16T13:10:52;78113.09;;;23.75;44.04
20955;BME280;10636;19.390;-99.256;2022-10-16T13:13:48;78113.72;;;23.73;44.02